Morton S. Bouchard Jr. — WDI5331 — position and weather

sailwx.info

Track history (hours):
 
Tides and Currents Weather Stations Pressure Air Temp Water Temp Dewpoint Dewpoint Depression Visibility Wind Speed Wind Dir Waves Ship Positions

Morton S. Bouchard Jr.

Owner: Tug Morton S. Bouchard Jr. Corp., Melville, NY. More information available from US FCC via Universal Licensing System and Coast Guard Vessel Documentation Center.

Last reported at 2018-Jun-24 17:33 UTC. Time now 2018-Jun-25 05:31 UTC.
Position N 40°45' W 073°58'.

Length 156 m; draft 7.4 m.

MMSI: 367707480.

Date/timePositionNaut miles runAvg speedWind from/ knotsBaromVisibWave heightAir tempDewpointWater temp
2018-Jun-24 17:33N 40°45' W 073°58'0 7.3
2018-Jun-24 17:29N 40°44' W 073°58'3 6.5
2018-Jun-24 17:00N 40°42' W 074°00'3 6.4
2018-Jun-24 16:30N 40°39' W 074°03'0 0.1
2018-Jun-24 15:59N 40°39' W 074°03'0 0.0
2018-Jun-24 15:29N 40°39' W 074°03'0 0.0
2018-Jun-24 14:59N 40°39' W 074°03'0 0.0
2018-Jun-24 14:29N 40°39' W 074°03'0 0.0
2018-Jun-24 13:59N 40°39' W 074°03'0 0.1
2018-Jun-24 13:29N 40°39' W 074°03'0 0.1
2018-Jun-24 13:00N 40°39' W 074°03'0 0.3
2018-Jun-24 12:30N 40°39' W 074°03'4 7.8
2018-Jun-24 12:01N 40°39' W 074°08'3 6.8
2018-Jun-24 11:30N 40°37' W 074°12'1 0.4
2018-Jun-24 09:03N 40°36' W 074°12'3 7.0
2018-Jun-24 08:40N 40°39' W 074°11'1 7.5
2018-Jun-24 08:30N 40°39' W 074°10'2 0.1
2018-Jun-23 14:17N 40°39' W 074°07'2 8.2
2018-Jun-23 14:00N 40°39' W 074°10'1 0.1
2018-Jun-23 01:50N 40°39' W 074°11'3 7.9
2018-Jun-23 01:30N 40°39' W 074°08'3 6.4
2018-Jun-23 01:00N 40°39' W 074°04'4 7.4
2018-Jun-23 00:30N 40°35' W 074°01'0 0.1
2018-Jun-22 23:05N 40°35' W 074°01'0 0.1
2018-Jun-22 22:59N 40°35' W 074°01'0 0.0
2018-Jun-22 22:29N 40°35' W 074°01'0 0.0
2018-Jun-22 21:49N 40°35' W 074°01'0 0.1
2018-Jun-22 21:26N 40°35' W 074°01'0 0.1
2018-Jun-22 20:59N 40°36' W 074°01'0 0.0
2018-Jun-22 16:05N 40°35' W 074°01'0 0.1
2018-Jun-22 15:56N 40°35' W 074°01'0 0.0
2018-Jun-22 15:29N 40°35' W 074°01'0 0.7
2018-Jun-22 14:59N 40°35' W 074°01'5 6.2
2018-Jun-22 14:08N 40°31' W 073°58'29 9.2
2018-Jun-22 11:01N 40°32' W 073°20'0 9.6
2018-Jun-22 11:00N 40°33' W 073°20'159 8.7
2018-Jun-21 16:38N 42°16' W 070°39'110.1
2018-Jun-21 16:30N 42°17' W 070°40'510.0
2018-Jun-21 16:00N 42°20' W 070°45'5 9.9
2018-Jun-21 15:30N 42°23' W 070°51'5 9.9
2018-Jun-21 15:01N 42°20' W 070°57'5 9.2
2018-Jun-21 14:30N 42°22' W 071°03'2 3.7
2018-Jun-21 14:01N 42°23' W 071°01'0 0.7
2018-Jun-21 13:30N 42°24' W 071°01'0 0.0
2018-Jun-21 13:00N 42°24' W 071°01'0 0.0
2018-Jun-21 12:30N 42°24' W 071°01'0 0.0
2018-Jun-21 12:00N 42°24' W 071°01'0 0.0
2018-Jun-21 11:27N 42°24' W 071°01'0 0.0
2018-Jun-21 11:00N 42°24' W 071°01'0 0.0
2018-Jun-21 10:21N 42°24' W 071°01'0 0.0
2018-Jun-21 10:00N 42°24' W 071°01'0 0.0
2018-Jun-21 09:30N 42°24' W 071°01'0 0.0
2018-Jun-21 08:51N 42°24' W 071°01'0 0.0
2018-Jun-21 08:30N 42°24' W 071°01'0 0.0
2018-Jun-21 08:00N 42°24' W 071°01'0 0.0
2018-Jun-21 07:30N 42°24' W 071°01'0 0.0
2018-Jun-21 07:00N 42°24' W 071°01'0 0.0
2018-Jun-21 06:27N 42°24' W 071°01'0 0.0
2018-Jun-21 05:57N 42°24' W 071°01'0 0.0
2018-Jun-21 05:30N 42°24' W 071°01'0 0.0
2018-Jun-21 05:00N 42°24' W 071°01'0 0.0
2018-Jun-21 04:30N 42°24' W 071°01'0 0.0
2018-Jun-21 04:00N 42°24' W 071°01'0 0.0
2018-Jun-21 03:24N 42°24' W 071°01'0 0.0
2018-Jun-21 03:00N 42°24' W 071°01'0 0.0
2018-Jun-21 02:21N 42°24' W 071°01'0 0.0
2018-Jun-21 02:00N 42°24' W 071°01'0 0.0
2018-Jun-21 01:24N 42°24' W 071°01'0 0.0
2018-Jun-21 01:00N 42°24' W 071°01'0 0.0
2018-Jun-21 00:30N 42°24' W 071°01'0 0.0
2018-Jun-20 23:54N 42°24' W 071°01'0 0.0
2018-Jun-20 23:30N 42°24' W 071°01'0 0.0
2018-Jun-20 23:00N 42°24' W 071°01'0 0.0
2018-Jun-20 22:30N 42°24' W 071°01'0 0.0
2018-Jun-20 21:54N 42°24' W 071°01'0 0.0
2018-Jun-20 21:24N 42°24' W 071°01'0 0.0
2018-Jun-20 21:00N 42°24' W 071°01'0 0.0
2018-Jun-20 20:18N 42°24' W 071°01'0 0.0
2018-Jun-20 19:54N 42°24' W 071°01'0 0.0
2018-Jun-20 19:30N 42°24' W 071°01'0 0.0
2018-Jun-20 19:00N 42°24' W 071°01'0 0.0
2018-Jun-20 18:30N 42°24' W 071°01'0 0.0
2018-Jun-20 17:54N 42°24' W 071°01'0 0.0
2018-Jun-20 17:30N 42°24' W 071°01'0 0.0
2018-Jun-20 16:54N 42°24' W 071°01'0 0.0
2018-Jun-20 16:30N 42°24' W 071°01'0 0.0
2018-Jun-20 16:00N 42°24' W 071°01'0 0.0
2018-Jun-20 15:30N 42°24' W 071°01'0 0.4
2018-Jun-20 15:00N 42°24' W 071°01'1 1.9
2018-Jun-20 14:31N 42°23' W 071°02'1 2.7
2018-Jun-20 14:00N 42°22' W 071°03'4 8.1
2018-Jun-20 13:30N 42°20' W 070°58'4 7.8
2018-Jun-20 13:00N 42°23' W 070°53'4 8.9
2018-Jun-20 12:30N 42°22' W 070°47'5 9.4
2018-Jun-20 12:00N 42°19' W 070°43'5 9.6
2018-Jun-20 11:30N 42°16' W 070°38'5 9.5
2018-Jun-20 11:00N 42°12' W 070°34'5 9.8
2018-Jun-20 10:29N 42°07' W 070°31'5 9.7
2018-Jun-20 10:00N 42°03' W 070°29'5 9.6
2018-Jun-20 09:31N 41°58' W 070°28'5 9.4
2018-Jun-20 09:00N 41°53' W 070°28'5 9.6
2018-Jun-20 08:30N 41°49' W 070°28'177 8.7
2018-Jun-19 12:08N 40°35' W 074°02'111.3
2018-Jun-19 12:01N 40°36' W 074°03'4 7.9
2018-Jun-19 11:30N 40°39' W 074°07'0 0.1
2018-Jun-19 11:00N 40°39' W 074°07'0 0.0
2018-Jun-19 10:31N 40°39' W 074°07'1 0.0
2018-Jun-18 11:45N 40°39' W 074°06'0 0.0
2018-Jun-18 11:30N 40°39' W 074°06'0 0.1
2018-Jun-18 06:14N 40°39' W 074°05'0 0.4
2018-Jun-18 06:00N 40°39' W 074°05'2 3.9
2018-Jun-18 05:29N 40°39' W 074°03'0 0.0
2018-Jun-18 04:56N 40°39' W 074°03'0 0.0
2018-Jun-18 04:26N 40°39' W 074°03'0 0.0
2018-Jun-18 03:59N 40°39' W 074°03'0 0.1
2018-Jun-18 03:23N 40°39' W 074°03'0 0.0
2018-Jun-18 02:59N 40°39' W 074°03'0 0.1
2018-Jun-18 02:29N 40°39' W 074°03'0 0.0
2018-Jun-18 01:56N 40°39' W 074°03'0 0.2
2018-Jun-18 01:29N 40°39' W 074°03'0 0.1
2018-Jun-18 01:01N 40°39' W 074°03'2 4.7
2018-Jun-18 00:30N 40°39' W 074°06'0 0.0
2018-Jun-17 16:51N 40°39' W 074°06'1 1.6
2018-Jun-17 16:28N 40°39' W 074°07'0 0.0
2018-Jun-17 16:00N 40°39' W 074°07'2 3.4
2018-Jun-17 15:29N 40°39' W 074°04'1 2.2
2018-Jun-17 14:51N 40°38' W 074°03'0 0.1
2018-Jun-17 14:11N 40°38' W 074°03'0 0.4
2018-Jun-17 14:00N 40°38' W 074°03'0 0.1
2018-Jun-17 13:30N 40°38' W 074°03'0 0.1
2018-Jun-17 13:00N 40°38' W 074°03'0 0.8
2018-Jun-17 12:30N 40°38' W 074°03'3 6.2
2018-Jun-17 12:00N 40°41' W 074°01'9 0.2
2018-Jun-15 15:42N 40°48' W 073°54'2 8.8
2018-Jun-15 15:25N 40°47' W 073°56'4 8.6
2018-Jun-15 15:01N 40°43' W 073°58'4 8.7
2018-Jun-15 14:31N 40°40' W 074°02'2 4.6
2018-Jun-15 14:00N 40°39' W 074°05'3 5.5
2018-Jun-15 13:30N 40°39' W 074°08'  
Track history (hours):
 
Tides and Currents Weather Stations Pressure Air Temp Water Temp Dewpoint Dewpoint Depression Visibility Wind Speed Wind Dir Waves Ship Positions

Morton S. Bouchard Jr.

Owner: Tug Morton S. Bouchard Jr. Corp., Melville, NY. More information available from US FCC via Universal Licensing System and Coast Guard Vessel Documentation Center.

Last reported at 2018-Jun-24 17:33 UTC. Time now 2018-Jun-25 05:31 UTC.
Position N 40°45' W 073°58'.

Length 156 m; draft 7.4 m.

MMSI: 367707480.

Date/timePositionNaut miles runAvg speedWind from/ knotsBaromVisibWave heightAir tempDewpointWater temp
2018-Jun-24 17:33N 40°45' W 073°58'0 7.3
2018-Jun-24 17:29N 40°44' W 073°58'3 6.5
2018-Jun-24 17:00N 40°42' W 074°00'3 6.4
2018-Jun-24 16:30N 40°39' W 074°03'0 0.1
2018-Jun-24 15:59N 40°39' W 074°03'0 0.0
2018-Jun-24 15:29N 40°39' W 074°03'0 0.0
2018-Jun-24 14:59N 40°39' W 074°03'0 0.0
2018-Jun-24 14:29N 40°39' W 074°03'0 0.0
2018-Jun-24 13:59N 40°39' W 074°03'0 0.1
2018-Jun-24 13:29N 40°39' W 074°03'0 0.1
2018-Jun-24 13:00N 40°39' W 074°03'0 0.3
2018-Jun-24 12:30N 40°39' W 074°03'4 7.8
2018-Jun-24 12:01N 40°39' W 074°08'3 6.8
2018-Jun-24 11:30N 40°37' W 074°12'1 0.4
2018-Jun-24 09:03N 40°36' W 074°12'3 7.0
2018-Jun-24 08:40N 40°39' W 074°11'1 7.5
2018-Jun-24 08:30N 40°39' W 074°10'2 0.1
2018-Jun-23 14:17N 40°39' W 074°07'2 8.2
2018-Jun-23 14:00N 40°39' W 074°10'1 0.1
2018-Jun-23 01:50N 40°39' W 074°11'3 7.9
2018-Jun-23 01:30N 40°39' W 074°08'3 6.4
2018-Jun-23 01:00N 40°39' W 074°04'4 7.4
2018-Jun-23 00:30N 40°35' W 074°01'0 0.1
2018-Jun-22 23:05N 40°35' W 074°01'0 0.1
2018-Jun-22 22:59N 40°35' W 074°01'0 0.0
2018-Jun-22 22:29N 40°35' W 074°01'0 0.0
2018-Jun-22 21:49N 40°35' W 074°01'0 0.1
2018-Jun-22 21:26N 40°35' W 074°01'0 0.1
2018-Jun-22 20:59N 40°36' W 074°01'0 0.0
2018-Jun-22 16:05N 40°35' W 074°01'0 0.1
2018-Jun-22 15:56N 40°35' W 074°01'0 0.0
2018-Jun-22 15:29N 40°35' W 074°01'0 0.7
2018-Jun-22 14:59N 40°35' W 074°01'5 6.2
2018-Jun-22 14:08N 40°31' W 073°58'29 9.2
2018-Jun-22 11:01N 40°32' W 073°20'0 9.6
2018-Jun-22 11:00N 40°33' W 073°20'159 8.7
2018-Jun-21 16:38N 42°16' W 070°39'110.1
2018-Jun-21 16:30N 42°17' W 070°40'510.0
2018-Jun-21 16:00N 42°20' W 070°45'5 9.9
2018-Jun-21 15:30N 42°23' W 070°51'5 9.9
2018-Jun-21 15:01N 42°20' W 070°57'5 9.2
2018-Jun-21 14:30N 42°22' W 071°03'2 3.7
2018-Jun-21 14:01N 42°23' W 071°01'0 0.7
2018-Jun-21 13:30N 42°24' W 071°01'0 0.0
2018-Jun-21 13:00N 42°24' W 071°01'0 0.0
2018-Jun-21 12:30N 42°24' W 071°01'0 0.0
2018-Jun-21 12:00N 42°24' W 071°01'0 0.0
2018-Jun-21 11:27N 42°24' W 071°01'0 0.0
2018-Jun-21 11:00N 42°24' W 071°01'0 0.0
2018-Jun-21 10:21N 42°24' W 071°01'0 0.0
2018-Jun-21 10:00N 42°24' W 071°01'0 0.0
2018-Jun-21 09:30N 42°24' W 071°01'0 0.0
2018-Jun-21 08:51N 42°24' W 071°01'0 0.0
2018-Jun-21 08:30N 42°24' W 071°01'0 0.0
2018-Jun-21 08:00N 42°24' W 071°01'0 0.0
2018-Jun-21 07:30N 42°24' W 071°01'0 0.0
2018-Jun-21 07:00N 42°24' W 071°01'0 0.0
2018-Jun-21 06:27N 42°24' W 071°01'0 0.0
2018-Jun-21 05:57N 42°24' W 071°01'0 0.0
2018-Jun-21 05:30N 42°24' W 071°01'0 0.0
2018-Jun-21 05:00N 42°24' W 071°01'0 0.0
2018-Jun-21 04:30N 42°24' W 071°01'0 0.0
2018-Jun-21 04:00N 42°24' W 071°01'0 0.0
2018-Jun-21 03:24N 42°24' W 071°01'0 0.0
2018-Jun-21 03:00N 42°24' W 071°01'0 0.0
2018-Jun-21 02:21N 42°24' W 071°01'0 0.0
2018-Jun-21 02:00N 42°24' W 071°01'0 0.0
2018-Jun-21 01:24N 42°24' W 071°01'0 0.0
2018-Jun-21 01:00N 42°24' W 071°01'0 0.0
2018-Jun-21 00:30N 42°24' W 071°01'0 0.0
2018-Jun-20 23:54N 42°24' W 071°01'0 0.0
2018-Jun-20 23:30N 42°24' W 071°01'0 0.0
2018-Jun-20 23:00N 42°24' W 071°01'0 0.0
2018-Jun-20 22:30N 42°24' W 071°01'0 0.0
2018-Jun-20 21:54N 42°24' W 071°01'0 0.0
2018-Jun-20 21:24N 42°24' W 071°01'0 0.0
2018-Jun-20 21:00N 42°24' W 071°01'0 0.0
2018-Jun-20 20:18N 42°24' W 071°01'0 0.0
2018-Jun-20 19:54N 42°24' W 071°01'0 0.0
2018-Jun-20 19:30N 42°24' W 071°01'0 0.0
2018-Jun-20 19:00N 42°24' W 071°01'0 0.0
2018-Jun-20 18:30N 42°24' W 071°01'0 0.0
2018-Jun-20 17:54N 42°24' W 071°01'0 0.0
2018-Jun-20 17:30N 42°24' W 071°01'0 0.0
2018-Jun-20 16:54N 42°24' W 071°01'0 0.0
2018-Jun-20 16:30N 42°24' W 071°01'0 0.0
2018-Jun-20 16:00N 42°24' W 071°01'0 0.0
2018-Jun-20 15:30N 42°24' W 071°01'0 0.4
2018-Jun-20 15:00N 42°24' W 071°01'1 1.9
2018-Jun-20 14:31N 42°23' W 071°02'1 2.7
2018-Jun-20 14:00N 42°22' W 071°03'4 8.1
2018-Jun-20 13:30N 42°20' W 070°58'4 7.8
2018-Jun-20 13:00N 42°23' W 070°53'4 8.9
2018-Jun-20 12:30N 42°22' W 070°47'5 9.4
2018-Jun-20 12:00N 42°19' W 070°43'5 9.6
2018-Jun-20 11:30N 42°16' W 070°38'5 9.5
2018-Jun-20 11:00N 42°12' W 070°34'5 9.8
2018-Jun-20 10:29N 42°07' W 070°31'5 9.7
2018-Jun-20 10:00N 42°03' W 070°29'5 9.6
2018-Jun-20 09:31N 41°58' W 070°28'5 9.4
2018-Jun-20 09:00N 41°53' W 070°28'5 9.6
2018-Jun-20 08:30N 41°49' W 070°28'177 8.7
2018-Jun-19 12:08N 40°35' W 074°02'111.3
2018-Jun-19 12:01N 40°36' W 074°03'4 7.9
2018-Jun-19 11:30N 40°39' W 074°07'0 0.1
2018-Jun-19 11:00N 40°39' W 074°07'0 0.0
2018-Jun-19 10:31N 40°39' W 074°07'1 0.0
2018-Jun-18 11:45N 40°39' W 074°06'0 0.0
2018-Jun-18 11:30N 40°39' W 074°06'0 0.1
2018-Jun-18 06:14N 40°39' W 074°05'0 0.4
2018-Jun-18 06:00N 40°39' W 074°05'2 3.9
2018-Jun-18 05:29N 40°39' W 074°03'0 0.0
2018-Jun-18 04:56N 40°39' W 074°03'0 0.0
2018-Jun-18 04:26N 40°39' W 074°03'0 0.0
2018-Jun-18 03:59N 40°39' W 074°03'0 0.1
2018-Jun-18 03:23N 40°39' W 074°03'0 0.0
2018-Jun-18 02:59N 40°39' W 074°03'0 0.1
2018-Jun-18 02:29N 40°39' W 074°03'0 0.0
2018-Jun-18 01:56N 40°39' W 074°03'0 0.2
2018-Jun-18 01:29N 40°39' W 074°03'0 0.1
2018-Jun-18 01:01N 40°39' W 074°03'2 4.7
2018-Jun-18 00:30N 40°39' W 074°06'0 0.0
2018-Jun-17 16:51N 40°39' W 074°06'1 1.6
2018-Jun-17 16:28N 40°39' W 074°07'0 0.0
2018-Jun-17 16:00N 40°39' W 074°07'2 3.4
2018-Jun-17 15:29N 40°39' W 074°04'1 2.2
2018-Jun-17 14:51N 40°38' W 074°03'0 0.1
2018-Jun-17 14:11N 40°38' W 074°03'0 0.4
2018-Jun-17 14:00N 40°38' W 074°03'0 0.1
2018-Jun-17 13:30N 40°38' W 074°03'0 0.1
2018-Jun-17 13:00N 40°38' W 074°03'0 0.8
2018-Jun-17 12:30N 40°38' W 074°03'3 6.2
2018-Jun-17 12:00N 40°41' W 074°01'9 0.2
2018-Jun-15 15:42N 40°48' W 073°54'2 8.8
2018-Jun-15 15:25N 40°47' W 073°56'4 8.6
2018-Jun-15 15:01N 40°43' W 073°58'4 8.7
2018-Jun-15 14:31N 40°40' W 074°02'2 4.6
2018-Jun-15 14:00N 40°39' W 074°05'3 5.5
2018-Jun-15 13:30N 40°39' W 074°08'  

Dump ship's entire track history